Time;durP1;ratioP1;P1;durP2;ratioP2;P2;SDS_P1;SDS_P2;PMS_P1;PMS_P2;Temp;Humidity;BMP_temperature;BMP_pressure;BME280_temperature;BME280_humidity;BME280_pressure;Samples;Min_cycle;Max_cycle;Signal;HPM_P1;HPM_P2
2024/01/12 00:02:00;;;;;;;36.38;16.70;;;;;;;28.85;67.14;101079.72;5060242;28;66368;-41
2024/01/12 00:04:30;;;;;;;37.30;17.25;;;;;;;28.86;66.47;101084.94;5048166;28;70439;-39
2024/01/12 00:07:01;;;;;;;36.17;17.42;;;;;;;28.95;65.29;101083.72;5061009;28;65710;-41
2024/01/12 00:09:32;;;;;;;42.17;17.83;;;;;;;28.95;67.33;101085.59;5060192;28;69300;-40
2024/01/12 00:12:02;;;;;;;44.05;20.35;;;;;;;29.02;71.01;101093.72;5040002;28;66285;-38
2024/01/12 00:14:33;;;;;;;52.07;25.37;;;;;;;28.90;71.10;101075.38;5054055;28;69322;-40
2024/01/12 00:17:04;;;;;;;47.55;22.15;;;;;;;28.87;75.87;101092.00;5056926;28;66564;-40
2024/01/12 00:19:35;;;;;;;39.60;21.48;;;;;;;28.94;69.02;101092.00;5026385;28;70140;-38
2024/01/12 00:22:05;;;;;;;40.65;22.23;;;;;;;28.85;70.14;101077.84;5036967;28;66554;-39
2024/01/12 00:24:36;;;;;;;55.33;23.17;;;;;;;28.96;71.30;101101.56;5039528;28;70084;-38
2024/01/12 00:27:06;;;;;;;48.80;25.08;;;;;;;28.95;74.39;101101.78;5056290;28;66452;-39
2024/01/12 00:29:37;;;;;;;54.67;25.47;;;;;;;28.95;75.94;101113.44;5041325;28;70391;-40
2024/01/12 00:32:08;;;;;;;68.53;27.05;;;;;;;28.93;76.04;101110.09;5040503;28;65003;-38
2024/01/12 00:34:38;;;;;;;52.42;24.88;;;;;;;28.93;73.64;101118.19;5041747;28;68555;-38
2024/01/12 00:37:09;;;;;;;46.10;24.70;;;;;;;28.90;72.98;101124.00;5041817;28;66527;-39
2024/01/12 00:39:39;;;;;;;47.03;23.90;;;;;;;28.84;75.86;101124.81;5041323;28;70660;-40
2024/01/12 00:42:10;;;;;;;42.22;22.25;;;;;;;28.80;74.55;101118.13;5057440;28;66082;-42
2024/01/12 00:44:41;;;;;;;40.92;20.73;;;;;;;28.85;75.37;101125.63;5041949;28;71441;-39
2024/01/12 00:47:12;;;;;;;37.30;21.55;;;;;;;28.83;77.07;101127.69;5041983;28;65583;-40
2024/01/12 00:49:43;;;;;;;44.97;21.17;;;;;;;28.89;72.83;101133.13;5041741;28;70248;-39
2024/01/12 00:52:13;;;;;;;37.60;18.42;;;;;;;28.95;70.45;101137.72;5042486;28;66740;-39
2024/01/12 00:54:44;;;;;;;35.38;19.92;;;;;;;28.91;76.23;101128.34;5043231;28;69386;-39
2024/01/12 00:57:14;;;;;;;30.77;18.15;;;;;;;28.95;72.64;101136.91;5042168;28;66790;-41
2024/01/12 00:59:45;;;;;;;37.47;19.15;;;;;;;28.90;73.96;101129.41;5043739;28;68851;-38
2024/01/12 01:02:15;;;;;;;29.05;17.08;;;;;;;28.96;75.38;101143.97;5021724;28;65341;-39
2024/01/12 01:04:46;;;;;;;36.10;19.33;;;;;;;29.03;76.52;101149.38;5056128;28;68388;-40
2024/01/12 01:07:16;;;;;;;33.22;17.45;;;;;;;29.07;74.87;101150.69;5042769;28;66254;-40
2024/01/12 01:09:47;;;;;;;26.40;16.17;;;;;;;29.18;69.08;101150.09;5038186;28;69644;-39
2024/01/12 01:12:19;;;;;;;18.40;14.25;;;;;;;28.89;68.39;101100.75;5039473;28;65750;-39
2024/01/12 01:14:50;;;;;;;25.50;14.93;;;;;;;29.29;67.88;101165.72;5050107;28;71089;-39
2024/01/12 01:17:20;;;;;;;26.02;15.52;;;;;;;29.33;67.61;101171.56;5047550;28;65805;-39
2024/01/12 01:19:51;;;;;;;20.98;15.65;;;;;;;29.37;67.76;101173.66;5031217;28;70076;-38
2024/01/12 01:22:21;;;;;;;20.27;15.20;;;;;;;29.42;67.41;101180.31;5053700;28;66636;-42
2024/01/12 01:24:52;;;;;;;25.00;15.75;;;;;;;29.46;67.70;101178.88;5065448;28;70084;-39
2024/01/12 01:27:22;;;;;;;20.17;15.10;;;;;;;29.48;67.23;101182.22;5052136;28;65491;-40
2024/01/12 01:29:53;;;;;;;23.13;15.00;;;;;;;29.50;67.16;101178.25;5052633;28;71070;-40
2024/01/12 01:32:24;;;;;;;18.45;14.52;;;;;;;29.48;66.94;101174.13;5048171;28;66676;-40
2024/01/12 01:34:55;;;;;;;20.67;15.18;;;;;;;29.20;66.76;101121.03;5053360;28;72032;-40
2024/01/12 01:37:25;;;;;;;20.15;14.70;;;;;;;29.47;66.99;101161.63;5049546;28;66622;-39
2024/01/12 01:39:55;;;;;;;24.13;15.43;;;;;;;29.55;66.80;101170.38;5040204;28;70360;-39
2024/01/12 01:42:26;;;;;;;21.92;15.20;;;;;;;29.59;66.75;101174.34;5038674;28;66387;-38
2024/01/12 01:44:57;;;;;;;23.02;15.18;;;;;;;29.62;67.17;101175.81;5027320;28;70371;-38
2024/01/12 01:47:28;;;;;;;29.52;14.93;;;;;;;29.64;67.22;101179.16;5038131;28;66321;-39
2024/01/12 01:49:59;;;;;;;25.88;15.10;;;;;;;29.62;66.72;101179.34;5053446;28;70592;-40
2024/01/12 01:52:30;;;;;;;24.25;16.67;;;;;;;29.65;66.79;101178.13;5050013;28;66609;-38
2024/01/12 01:55:00;;;;;;;21.25;15.10;;;;;;;29.66;67.19;101176.25;5042010;28;70723;-39
2024/01/12 01:57:33;;;;;;;18.98;15.38;;;;;;;29.54;66.63;101143.56;5039731;28;66258;-39
2024/01/12 02:00:03;;;;;;;;;;;;;;;29.40;69.26;101177.81;5039252;28;69990;-39
2024/01/12 02:02:41;;;;;;;18.35;14.05;;;;;;;29.67;66.68;101178.75;5042655;28;66605;-39
2024/01/12 02:05:11;;;;;;;;;;;;;;;29.42;69.30;101172.19;5040774;28;70077;-39
2024/01/12 02:07:42;;;;;;;20.55;13.88;;;;;;;29.69;66.84;101178.53;5038704;28;66822;-40
2024/01/12 02:10:13;;;;;;;19.60;14.60;;;;;;;29.64;66.75;101162.94;5077824;28;69806;-41
2024/01/12 02:12:43;;;;;;;18.35;13.63;;;;;;;29.73;67.11;101166.28;5042326;28;66369;-39
2024/01/12 02:15:14;;;;;;;17.63;15.50;;;;;;;29.72;66.92;101160.03;5053701;28;69351;-38
2024/01/12 02:17:45;;;;;;;18.13;14.50;;;;;;;29.58;67.04;101136.69;5054913;28;66284;-40
2024/01/12 02:20:16;;;;;;;18.87;15.37;;;;;;;29.78;66.63;101161.94;5051017;28;70126;-40
2024/01/12 02:22:47;;;;;;;18.33;14.63;;;;;;;29.80;66.42;101167.94;5042553;28;67509;-39
2024/01/12 02:25:18;;;;;;;20.77;14.30;;;;;;;29.80;66.54;101162.53;5058089;28;69987;-39
2024/01/12 02:27:49;;;;;;;15.80;14.25;;;;;;;29.42;66.71;101088.44;5042030;28;66589;-39
2024/01/12 02:30:20;;;;;;;15.35;13.60;;;;;;;29.86;66.68;101160.06;5041549;28;70264;-38
2024/01/12 02:32:51;;;;;;;18.55;14.75;;;;;;;29.94;66.44;101167.97;5060011;28;65815;-39
2024/01/12 02:35:22;;;;;;;18.15;14.95;;;;;;;29.93;66.64;101158.19;5046313;28;69510;-40
2024/01/12 02:37:52;;;;;;;18.67;15.63;;;;;;;29.97;66.31;101156.72;5051527;28;65635;-40
2024/01/12 02:40:23;;;;;;;20.08;14.85;;;;;;;29.99;66.32;101160.06;5061964;28;70159;-40
2024/01/12 02:42:53;;;;;;;21.25;14.35;;;;;;;29.93;66.09;101150.09;5048533;28;65545;-40
2024/01/12 02:45:24;;;;;;;16.38;14.57;;;;;;;29.97;66.45;101156.72;5060623;28;70762;-39
2024/01/12 02:47:55;;;;;;;18.48;14.88;;;;;;;30.02;66.73;101162.34;5041769;28;67507;-40
2024/01/12 02:50:26;;;;;;;18.13;14.35;;;;;;;29.96;66.75;101152.38;5066449;28;70159;-40
2024/01/12 02:52:56;;;;;;;22.10;15.27;;;;;;;30.06;66.73;101160.88;5039479;28;66298;-39
2024/01/12 02:55:27;;;;;;;25.45;15.27;;;;;;;30.08;66.70;101152.56;5041276;28;69801;-39
2024/01/12 02:57:57;;;;;;;18.02;15.35;;;;;;;30.11;66.69;101152.97;5042298;28;65449;-40
2024/01/12 03:00:30;;;;;;;19.38;14.43;;;;;;;30.05;66.52;101137.59;5076622;28;70444;-39
2024/01/12 03:03:01;;;;;;;16.83;14.68;;;;;;;30.13;66.60;101150.91;5043139;28;66119;-39
2024/01/12 03:05:32;;;;;;;17.40;14.68;;;;;;;30.14;66.29;101146.31;5040558;28;69476;-39
2024/01/12 03:08:03;;;;;;;16.13;14.43;;;;;;;30.16;66.62;101141.53;5042429;28;66650;-38
2024/01/12 03:10:34;;;;;;;17.80;14.98;;;;;;;30.13;66.60;101140.09;5040723;28;69177;-38
2024/01/12 03:13:04;;;;;;;19.73;15.05;;;;;;;30.21;66.62;101150.69;5046682;28;66553;-39
2024/01/12 03:15:35;;;;;;;15.90;14.27;;;;;;;30.21;66.16;101147.16;5058491;28;69893;-40
2024/01/12 03:18:05;;;;;;;17.15;14.05;;;;;;;30.24;66.48;101146.78;5048934;28;65359;-39
2024/01/12 03:20:36;;;;;;;17.87;14.30;;;;;;;30.25;66.22;101149.25;5073907;28;70997;-39
2024/01/12 03:23:07;;;;;;;15.65;14.07;;;;;;;30.25;66.30;101134.91;5049246;28;65992;-39
2024/01/12 03:25:38;;;;;;;18.08;14.38;;;;;;;30.28;66.11;101138.03;5039923;28;70406;-39
2024/01/12 03:28:08;;;;;;;18.85;14.88;;;;;;;30.27;66.04;101130.94;5018968;28;66128;-40
2024/01/12 03:30:39;;;;;;;16.17;14.50;;;;;;;30.33;66.08;101133.84;5039471;28;69332;-38
2024/01/12 03:33:10;;;;;;;18.83;14.70;;;;;;;30.36;66.41;101138.84;5037839;28;66522;-40
2024/01/12 03:35:41;;;;;;;15.43;13.95;;;;;;;30.38;66.21;101136.75;5036739;28;70303;-39
2024/01/12 03:38:12;;;;;;;20.33;15.03;;;;;;;30.40;66.51;101140.09;5046867;28;66577;-38
2024/01/12 03:40:43;;;;;;;18.65;14.40;;;;;;;30.39;66.71;101127.59;5049580;28;69500;-39
2024/01/12 03:43:14;;;;;;;16.45;14.75;;;;;;;30.30;66.38;101105.34;5028555;28;66412;-39
2024/01/12 03:45:44;;;;;;;17.58;14.80;;;;;;;30.44;66.26;101120.50;5039357;28;70743;-38
2024/01/12 03:48:15;;;;;;;16.45;13.25;;;;;;;30.49;66.50;101117.16;5040303;28;66117;-38
2024/01/12 03:50:46;;;;;;;15.30;13.73;;;;;;;30.49;66.38;101114.47;5047970;28;70707;-38
2024/01/12 03:53:17;;;;;;;21.27;14.23;;;;;;;30.50;66.20;101106.09;5054671;28;65955;-40
2024/01/12 03:55:47;;;;;;;14.43;13.02;;;;;;;30.50;66.33;101102.56;5052188;28;70631;-38
2024/01/12 03:58:19;;;;;;;17.67;14.32;;;;;;;30.45;66.29;101091.53;5039365;28;65951;-39
2024/01/12 04:00:49;;;;;;;15.85;14.35;;;;;;;30.44;66.01;101082.59;5039519;28;70785;-39
2024/01/12 04:03:20;;;;;;;19.20;14.23;;;;;;;30.61;66.35;101104.63;5032559;28;65898;-38
2024/01/12 04:05:50;;;;;;;16.33;14.52;;;;;;;30.60;65.94;101089.44;5034783;28;70930;-38
2024/01/12 04:08:21;;;;;;;19.45;15.98;;;;;;;30.66;65.76;101085.88;5046022;28;66543;-39
2024/01/12 04:10:51;;;;;;;16.85;15.15;;;;;;;30.66;66.06;101075.03;5039681;28;71537;-38
2024/01/12 04:13:23;;;;;;;19.13;15.77;;;;;;;30.65;66.13;101078.78;5046143;28;66298;-39
2024/01/12 04:15:53;;;;;;;16.27;14.68;;;;;;;30.74;65.61;101079.38;5061987;28;69587;-39
2024/01/12 04:18:24;;;;;;;17.33;15.48;;;;;;;30.77;66.17;101080.84;5058381;28;67091;-39
2024/01/12 04:20:55;;;;;;;17.55;15.38;;;;;;;30.79;65.68;101073.34;5058448;28;70526;-40
2024/01/12 04:23:25;;;;;;;17.88;16.00;;;;;;;30.75;66.09;101064.78;5031855;28;66422;-38
2024/01/12 04:25:56;;;;;;;17.33;15.52;;;;;;;30.85;66.17;101061.66;5058867;28;70003;-39
2024/01/12 04:28:26;;;;;;;20.55;16.08;;;;;;;30.86;66.10;101064.13;5041892;28;66813;-39
2024/01/12 04:30:57;;;;;;;17.23;15.35;;;;;;;30.89;65.98;101062.88;5038682;28;70502;-40
2024/01/12 04:33:29;;;;;;;19.17;15.02;;;;;;;30.91;66.02;101060.78;5055005;28;66052;-39
2024/01/12 04:36:01;;;;;;;19.67;16.05;;;;;;;30.89;65.86;101044.75;5036771;28;69642;-39
2024/01/12 04:38:31;;;;;;;;;;;;;;;30.68;67.08;101051.28;5039690;28;66972;-38
2024/01/12 04:41:01;;;;;;;20.73;14.77;;;;;;;30.96;65.83;101039.31;5040660;28;69647;-38
2024/01/12 04:43:32;;;;;;;17.08;15.27;;;;;;;31.00;66.14;101029.69;5040652;28;66642;-39
2024/01/12 04:46:02;;;;;;;19.38;15.57;;;;;;;31.02;65.39;101029.47;5037565;28;70983;-38
2024/01/12 04:48:33;;;;;;;21.10;16.05;;;;;;;31.04;65.69;101019.28;5045954;28;66036;-39
2024/01/12 04:51:04;;;;;;;17.90;15.52;;;;;;;31.09;65.69;101017.56;5057785;28;70025;-38
2024/01/12 04:53:34;;;;;;;16.98;14.98;;;;;;;31.12;65.86;101014.41;5044863;28;66098;-39
2024/01/12 04:56:05;;;;;;;20.70;16.52;;;;;;;31.18;65.50;101012.72;5044942;28;70327;-38
2024/01/12 04:58:38;;;;;;;17.00;15.18;;;;;;;31.20;65.43;101005.16;5048029;28;66832;-36
2024/01/12 05:01:09;;;;;;;20.17;16.20;;;;;;;31.21;65.42;101000.59;5053057;28;69086;-38
2024/01/12 05:03:44;;;;;;;21.33;17.13;;;;;;;31.25;65.47;100994.50;5055260;28;66435;-39
2024/01/12 05:06:16;;;;;;;17.25;15.43;;;;;;;31.30;65.55;100988.44;5058716;28;70587;-39
2024/01/12 05:08:48;;;;;;;19.70;15.93;;;;;;;31.31;65.28;100973.81;5053526;28;66302;-39
2024/01/12 05:11:20;;;;;;;21.20;16.40;;;;;;;31.34;65.32;100978.78;5039031;28;69821;-39
2024/01/12 05:13:50;;;;;;;;;;;;;;;31.10;66.53;100972.31;5059291;28;66533;-39
2024/01/12 05:16:21;;;;;;;16.63;14.80;;;;;;;31.37;65.23;100967.53;5058026;28;70275;-40
2024/01/12 05:18:52;;;;;;;17.83;15.95;;;;;;;31.42;65.33;100961.47;5048566;28;66446;-39
2024/01/12 05:21:23;;;;;;;18.48;15.63;;;;;;;31.44;65.03;100962.91;5061044;28;70335;-40
2024/01/12 05:23:54;;;;;;;18.00;15.93;;;;;;;31.45;65.21;100959.13;5063206;28;65415;-40
2024/01/12 05:26:25;;;;;;;20.23;15.77;;;;;;;31.46;65.49;100949.97;5077672;28;69699;-41
2024/01/12 05:28:55;;;;;;;22.35;17.60;;;;;;;31.52;65.33;100950.94;5041612;28;65493;-42
2024/01/12 05:31:27;;;;;;;17.20;15.45;;;;;;;31.52;65.44;100949.06;5053278;28;69899;-39
2024/01/12 05:33:58;;;;;;;20.88;16.33;;;;;;;31.45;65.02;100921.16;5053776;28;66005;-39
2024/01/12 05:36:28;;;;;;;19.67;16.17;;;;;;;31.57;65.26;100935.66;5055838;28;69651;-40
2024/01/12 05:38:59;;;;;;;20.17;16.65;;;;;;;31.53;65.09;100926.31;5058262;28;66590;-39
2024/01/12 05:41:31;;;;;;;23.33;16.17;;;;;;;31.61;64.84;100931.44;5044489;28;70298;-40
2024/01/12 05:44:02;;;;;;;23.95;16.80;;;;;;;31.55;65.28;100921.50;5046003;28;66764;-40
2024/01/12 05:46:33;;;;;;;21.87;16.30;;;;;;;31.63;65.35;100916.84;5051134;28;70925;-45
2024/01/12 05:49:04;;;;;;;21.40;16.83;;;;;;;31.55;64.92;100899.81;5044847;28;66605;-39
2024/01/12 05:51:35;;;;;;;19.33;15.53;;;;;;;31.22;64.86;100835.06;5052523;28;70347;-40
2024/01/12 05:54:05;;;;;;;21.27;16.52;;;;;;;31.58;64.72;100882.25;5046917;28;66548;-40
2024/01/12 05:56:36;;;;;;;18.02;15.80;;;;;;;31.70;64.87;100888.59;5042473;28;69672;-39
2024/01/12 05:59:07;;;;;;;21.17;16.70;;;;;;;31.73;64.72;100890.00;5042570;28;65126;-41
2024/01/12 06:01:38;;;;;;;17.60;15.93;;;;;;;31.75;64.74;100891.44;5057750;28;69916;-40
2024/01/12 06:04:08;;;;;;;17.88;16.08;;;;;;;31.78;64.70;100882.03;5070669;28;65843;-41
2024/01/12 06:06:43;;;;;;;19.40;15.23;;;;;;;31.79;64.78;100872.88;5039247;28;69908;-40
2024/01/12 06:09:13;;;;;;;18.30;15.95;;;;;;;31.81;64.82;100868.84;5035309;28;65848;-40
2024/01/12 06:11:45;;;;;;;18.02;16.30;;;;;;;31.84;64.48;100870.28;5058448;28;69929;-39
2024/01/12 06:14:16;;;;;;;20.98;16.08;;;;;;;31.84;64.68;100862.13;5048932;28;66273;-40
2024/01/12 06:16:47;;;;;;;23.02;16.23;;;;;;;31.86;64.66;100860.03;5060267;28;69847;-38
2024/01/12 06:19:17;;;;;;;17.50;15.88;;;;;;;31.89;64.43;100862.28;5047036;28;66468;-39
2024/01/12 06:21:48;;;;;;;17.85;15.48;;;;;;;31.92;64.14;100851.00;5062786;28;71132;-39
2024/01/12 06:24:18;;;;;;;16.52;15.02;;;;;;;31.92;64.44;100837.44;5042122;28;66511;-40
2024/01/12 06:26:49;;;;;;;18.40;16.13;;;;;;;31.97;64.29;100837.59;5039357;28;70041;-40
2024/01/12 06:29:20;;;;;;;18.80;15.57;;;;;;;31.80;64.34;100799.38;5042845;28;65383;-40
2024/01/12 06:31:51;;;;;;;17.63;15.73;;;;;;;31.95;64.40;100823.41;5043357;28;70135;-39
2024/01/12 06:34:22;;;;;;;16.67;15.00;;;;;;;31.99;64.23;100821.91;5036763;28;66205;-39
2024/01/12 06:36:53;;;;;;;17.23;15.60;;;;;;;31.99;64.24;100813.78;5040469;28;70545;-39
2024/01/12 06:39:24;;;;;;;21.38;15.45;;;;;;;32.07;64.10;100826.19;5030074;28;66185;-40
2024/01/12 06:41:55;;;;;;;17.55;15.30;;;;;;;32.09;64.11;100815.94;5063759;28;70406;-40
2024/01/12 06:44:26;;;;;;;17.08;15.43;;;;;;;32.12;63.94;100818.19;5062419;28;66264;-40
2024/01/12 06:46:57;;;;;;;18.23;15.52;;;;;;;32.08;63.90;100805.31;5052590;28;69751;-39
2024/01/12 06:49:27;;;;;;;21.38;16.25;;;;;;;32.17;64.00;100809.34;5041790;28;65833;-38
2024/01/12 06:51:58;;;;;;;17.45;15.55;;;;;;;32.18;63.68;100817.28;5040330;28;70629;-38
2024/01/12 06:54:28;;;;;;;20.65;14.50;;;;;;;32.16;63.76;100810.41;5040828;28;66555;-39
2024/01/12 06:56:59;;;;;;;16.30;14.65;;;;;;;32.22;63.72;100815.75;5060485;28;70425;-41
2024/01/12 06:59:29;;;;;;;15.18;13.85;;;;;;;32.15;63.85;100800.59;5060935;28;65481;-40
2024/01/12 07:02:01;;;;;;;15.75;14.10;;;;;;;32.17;63.78;100803.94;5059548;28;69847;-41
2024/01/12 07:04:32;;;;;;;16.53;14.30;;;;;;;32.27;63.61;100812.34;5061179;28;67760;-40
2024/01/12 07:07:03;;;;;;;17.42;14.38;;;;;;;32.26;63.62;100797.94;5061799;28;69299;-40
2024/01/12 07:09:33;;;;;;;16.17;14.45;;;;;;;32.30;63.44;100803.72;5061732;28;66091;-39
2024/01/12 07:12:04;;;;;;;16.67;14.75;;;;;;;32.34;63.12;100804.91;5055953;28;70555;-42
2024/01/12 07:14:35;;;;;;;14.35;12.98;;;;;;;32.31;63.44;100793.69;5048091;28;64982;-38
2024/01/12 07:17:06;;;;;;;19.67;15.00;;;;;;;32.26;63.23;100786.25;5050778;28;70268;-39
2024/01/12 07:19:36;;;;;;;15.77;13.30;;;;;;;32.40;63.38;100792.28;5041747;28;66297;-39
2024/01/12 07:22:07;;;;;;;14.07;12.75;;;;;;;32.40;63.40;100787.72;5023816;28;68156;-38
2024/01/12 07:24:37;;;;;;;15.73;13.35;;;;;;;32.38;63.40;100780.88;5039624;28;66571;-39
2024/01/12 07:27:08;;;;;;;13.68;12.38;;;;;;;32.44;62.87;100788.88;5054792;28;70309;-39
2024/01/12 07:29:40;;;;;;;15.07;13.60;;;;;;;32.40;63.07;100779.56;5056404;28;66371;-40
2024/01/12 07:32:11;;;;;;;14.10;12.75;;;;;;;32.43;63.15;100783.69;5039826;28;70405;-39
2024/01/12 07:34:41;;;;;;;15.02;13.38;;;;;;;32.40;63.47;100771.44;5052934;28;66765;-39
2024/01/12 07:37:12;;;;;;;14.57;13.15;;;;;;;32.54;62.98;100776.66;5059528;28;70136;-39
2024/01/12 07:39:42;;;;;;;14.18;12.52;;;;;;;32.47;63.09;100766.72;5030567;28;66467;-39
2024/01/12 07:42:13;;;;;;;13.88;12.60;;;;;;;32.57;63.02;100776.19;5033482;28;69839;-39
2024/01/12 07:44:43;;;;;;;13.48;12.35;;;;;;;32.56;62.90;100769.94;5042651;28;66575;-39
2024/01/12 07:47:14;;;;;;;14.27;12.85;;;;;;;32.58;62.51;100775.13;5041735;28;69522;-39
2024/01/12 07:49:45;;;;;;;13.85;12.55;;;;;;;32.62;62.77;100784.47;5052448;28;66751;-38
2024/01/12 07:52:15;;;;;;;13.07;11.85;;;;;;;32.65;62.89;100775.84;5052372;28;69112;-39
2024/01/12 07:54:49;;;;;;;13.88;12.70;;;;;;;32.66;62.78;100775.63;5053213;28;65426;-38
2024/01/12 07:57:19;;;;;;;13.20;11.88;;;;;;;32.64;63.01;100768.75;5040804;28;70623;-39
2024/01/12 07:59:52;;;;;;;12.48;11.20;;;;;;;32.64;62.86;100776.91;5038573;28;66572;-39
2024/01/12 08:02:23;;;;;;;13.13;11.82;;;;;;;32.72;62.66;100779.28;5063992;28;70570;-40
2024/01/12 08:04:54;;;;;;;13.48;12.30;;;;;;;32.74;62.65;100777.16;5052118;28;66025;-40
2024/01/12 08:07:25;;;;;;;13.20;12.10;;;;;;;32.71;62.37;100766.78;5054325;28;70253;-38
2024/01/12 08:09:56;;;;;;;12.77;11.73;;;;;;;32.77;62.65;100776.69;5052206;28;65935;-39
2024/01/12 08:12:26;;;;;;;13.20;11.98;;;;;;;32.78;62.50;100783.75;5054791;28;70643;-39
2024/01/12 08:14:57;;;;;;;12.52;11.55;;;;;;;32.79;62.54;100782.72;5046303;28;64696;-38
2024/01/12 08:17:27;;;;;;;14.10;12.07;;;;;;;32.81;62.50;100782.47;5060687;28;70503;-39
2024/01/12 08:19:58;;;;;;;13.40;11.57;;;;;;;32.81;62.42;100777.03;5041698;28;66441;-39
2024/01/12 08:22:29;;;;;;;14.35;11.20;;;;;;;32.77;62.05;100771.25;5047102;28;70120;-40
2024/01/12 08:25:01;;;;;;;12.40;11.38;;;;;;;32.84;62.49;100776.56;5022793;28;65414;-39
2024/01/12 08:27:31;;;;;;;12.80;11.60;;;;;;;32.81;62.02;100771.59;5036014;28;69642;-39
2024/01/12 08:30:03;;;;;;;13.15;11.52;;;;;;;32.85;62.22;100778.22;5054303;28;66598;-39
2024/01/12 08:32:34;;;;;;;12.95;11.75;;;;;;;32.82;61.89;100765.94;5035468;28;70424;-39
2024/01/12 08:35:07;;;;;;;14.55;11.20;;;;;;;32.75;62.10;100751.66;5033150;28;66322;-39
2024/01/12 08:37:37;;;;;;;11.43;10.52;;;;;;;32.89;62.15;100785.66;5041685;28;70419;-39
2024/01/12 08:40:08;;;;;;;12.15;11.15;;;;;;;32.87;62.04;100770.66;5037360;28;66174;-40
2024/01/12 08:42:39;;;;;;;16.63;11.63;;;;;;;32.93;62.18;100786.00;5038686;28;70055;-38
2024/01/12 08:45:10;;;;;;;13.90;10.90;;;;;;;32.92;62.28;100784.34;5056581;28;65254;-40
2024/01/12 08:47:40;;;;;;;10.85;9.98;;;;;;;32.92;61.98;100779.75;5073255;28;68821;-40
2024/01/12 08:50:11;;;;;;;11.70;10.63;;;;;;;32.96;61.91;100784.69;5038231;28;65136;-39
2024/01/12 08:52:41;;;;;;;12.80;11.00;;;;;;;32.91;62.01;100783.53;5042909;28;69963;-39
2024/01/12 08:55:12;;;;;;;11.10;10.20;;;;;;;32.91;62.42;100778.09;5041271;28;65734;-39
2024/01/12 08:57:42;;;;;;;15.32;10.75;;;;;;;32.97;62.01;100791.81;5041489;28;69600;-38
2024/01/12 09:00:13;;;;;;;12.20;10.30;;;;;;;33.01;62.12;100795.72;5044218;28;65627;-40
2024/01/12 09:02:44;;;;;;;11.35;10.40;;;;;;;32.99;61.94;100805.97;5058985;28;69461;-38
2024/01/12 09:05:15;;;;;;;14.18;10.60;;;;;;;33.02;62.03;100797.41;5041700;28;66069;-38
2024/01/12 09:07:46;;;;;;;11.13;10.15;;;;;;;33.01;61.70;100793.00;5043441;28;69472;-39
2024/01/12 09:10:17;;;;;;;12.07;10.60;;;;;;;33.06;61.80;100801.28;5043044;28;66713;-39
2024/01/12 09:12:47;;;;;;;16.90;10.80;;;;;;;33.00;61.76;100797.63;5036355;28;69611;-39
2024/01/12 09:15:18;;;;;;;11.07;9.93;;;;;;;32.69;61.50;100749.88;5056851;28;67698;-40
2024/01/12 09:17:48;;;;;;;11.90;9.93;;;;;;;32.82;62.54;100798.53;5052752;28;69976;-39
2024/01/12 09:20:19;;;;;;;11.38;10.10;;;;;;;32.68;63.12;100799.81;5056786;28;66821;-39
2024/01/12 09:22:50;;;;;;;10.45;9.50;;;;;;;32.81;63.03;100794.16;5057181;28;69970;-39
2024/01/12 09:25:21;;;;;;;11.07;10.00;;;;;;;32.81;62.77;100793.34;5043905;28;65219;-40
2024/01/12 09:27:52;;;;;;;10.25;9.20;;;;;;;32.90;62.94;100809.06;5036658;28;69643;-41
2024/01/12 09:30:23;;;;;;;;;;;;;;;32.70;63.39;100814.81;5032113;28;66029;-39
2024/01/12 09:32:54;;;;;;;10.27;8.95;;;;;;;32.92;62.72;100817.78;5050965;28;70313;-41
2024/01/12 09:35:25;;;;;;;10.27;9.38;;;;;;;32.91;62.71;100821.56;5036944;28;66265;-39
2024/01/12 09:37:55;;;;;;;10.40;9.32;;;;;;;32.97;62.30;100816.25;5039576;28;69666;-39
2024/01/12 09:40:26;;;;;;;12.82;9.77;;;;;;;32.85;62.51;100808.13;5044633;28;66207;-39
2024/01/12 09:42:59;;;;;;;10.85;9.40;;;;;;;32.99;62.41;100830.41;5046217;28;69966;-41
2024/01/12 09:45:34;;;;;;;11.43;9.23;;;;;;;32.61;62.51;100761.91;5044953;28;66241;-40
2024/01/12 09:48:07;;;;;;;13.68;9.02;;;;;;;33.00;62.58;100824.78;5058579;28;70094;-40
2024/01/12 09:50:39;;;;;;;11.43;9.57;;;;;;;33.02;62.53;100832.72;5042527;28;66759;-40
2024/01/12 09:53:10;;;;;;;14.25;10.15;;;;;;;33.02;62.53;100838.16;5042552;28;69633;-40
2024/01/12 09:55:41;;;;;;;10.55;9.60;;;;;;;32.90;62.71;100824.50;5049920;28;66976;-40
2024/01/12 09:58:13;;;;;;;11.13;9.40;;;;;;;33.03;62.28;100848.78;5040501;28;68993;-40
2024/01/12 10:00:47;;;;;;;10.20;8.52;;;;;;;32.84;62.31;100822.75;5044583;28;66684;-39
2024/01/12 10:03:19;;;;;;;12.65;9.38;;;;;;;33.02;62.39;100849.03;5009166;28;69092;-41
2024/01/12 10:05:50;;;;;;;10.25;8.85;;;;;;;32.96;62.50;100839.03;5042697;28;66543;-39
2024/01/12 10:08:21;;;;;;;16.50;9.60;;;;;;;33.01;62.48;100858.22;5043983;28;69693;-41
2024/01/12 10:10:52;;;;;;;15.68;9.70;;;;;;;32.76;62.30;100806.78;5049955;28;66031;-40
2024/01/12 10:13:24;;;;;;;10.10;8.90;;;;;;;33.01;62.25;100859.03;5036589;28;69891;-42
2024/01/12 10:15:56;;;;;;;12.93;9.60;;;;;;;32.94;62.26;100851.00;5038981;28;66603;-40
2024/01/12 10:18:27;;;;;;;15.07;9.65;;;;;;;33.00;62.45;100867.44;5042062;28;69405;-40
2024/01/12 10:21:00;;;;;;;10.75;9.73;;;;;;;32.91;62.11;100872.38;5040963;28;66267;-39
2024/01/12 10:23:31;;;;;;;15.23;8.83;;;;;;;32.63;63.03;100856.75;5042454;28;69459;-40
2024/01/12 10:26:06;;;;;;;12.63;9.40;;;;;;;32.54;63.82;100879.84;5042805;28;66184;-39
2024/01/12 10:28:36;;;;;;;10.95;9.32;;;;;;;32.44;63.54;100867.63;5041681;28;70001;-39
2024/01/12 10:31:07;;;;;;;15.18;9.98;;;;;;;32.28;64.21;100852.00;5046184;28;66284;-40
2024/01/12 10:33:41;;;;;;;15.40;10.47;;;;;;;32.26;64.42;100863.09;5055831;28;70693;-39
2024/01/12 10:36:20;;;;;;;17.40;10.00;;;;;;;32.25;64.51;100871.44;5043602;28;66038;-40
2024/01/12 10:38:51;;;;;;;13.95;9.73;;;;;;;32.23;64.22;100865.41;5041127;28;69892;-41
2024/01/12 10:41:24;;;;;;;18.23;10.30;;;;;;;32.20;64.42;100863.16;5053151;28;66155;-40
2024/01/12 10:43:59;;;;;;;12.05;9.85;;;;;;;32.23;64.17;100870.84;5036605;28;70524;-41
2024/01/12 10:46:47;;;;;;;12.32;10.25;;;;;;;31.91;65.00;100864.78;5042110;28;66197;-40
2024/01/12 10:49:24;;;;;;;12.00;9.98;;;;;;;32.10;64.83;100877.28;5046549;28;69785;-41
2024/01/12 10:52:28;;;;;;;13.07;10.35;;;;;;;31.97;65.29;100885.59;5041408;28;65960;-40
2024/01/12 10:55:06;;;;;;;16.38;10.70;;;;;;;32.04;65.21;100892.59;5038476;28;69696;-40
2024/01/12 10:57:37;;;;;;;17.80;10.38;;;;;;;32.02;65.15;100891.19;5048233;28;64612;-40
2024/01/12 11:00:10;;;;;;;19.23;9.70;;;;;;;31.95;65.15;100877.69;5043096;28;69711;-42
2024/01/12 11:02:42;;;;;;;18.85;10.15;;;;;;;31.99;65.34;100889.75;5052050;28;66534;-41
2024/01/12 11:05:15;;;;;;;11.70;9.82;;;;;;;31.99;64.98;100903.31;5030193;28;70027;-41
2024/01/12 11:07:47;;;;;;;17.75;10.40;;;;;;;31.99;64.82;100899.78;5051756;28;66050;-42
2024/01/12 11:10:19;;;;;;;15.18;9.20;;;;;;;31.98;65.22;100893.53;5046154;28;69072;-40
2024/01/12 11:12:52;;;;;;;11.80;8.98;;;;;;;32.01;65.33;100898.50;5040700;28;66417;-39
2024/01/12 11:15:28;;;;;;;14.10;9.45;;;;;;;31.98;65.25;100898.94;5050042;28;70555;-42
2024/01/12 11:17:59;;;;;;;15.10;9.88;;;;;;;31.97;65.91;100900.00;5056192;28;66208;-41
2024/01/12 11:20:30;;;;;;;18.38;9.73;;;;;;;31.93;65.70;100900.66;5043720;28;69857;-42
2024/01/12 11:23:04;;;;;;;13.18;9.45;;;;;;;31.98;65.59;100904.38;5032678;28;43270;-42
2024/01/12 11:25:35;;;;;;;16.98;9.60;;;;;;;31.92;66.08;100905.25;5067176;28;69931;-41
2024/01/12 11:28:08;;;;;;;18.17;9.35;;;;;;;31.85;66.77;100899.06;5057497;28;65976;-42
2024/01/12 11:30:42;;;;;;;16.38;9.45;;;;;;;31.79;66.67;100902.69;5043025;28;69835;-40